CST,Max TemperatureF,Mean TemperatureF,Min TemperatureF,Max Dew PointF,MeanDew PointF,Min DewpointF,Max Humidity, Mean Humidity, Min Humidity, Max Sea Level PressureIn, Mean Sea Level PressureIn, Min Sea Level PressureIn, Max VisibilityMiles, Mean VisibilityMiles, Min VisibilityMiles, Max Wind SpeedMPH, Mean Wind SpeedMPH, Max Gust SpeedMPH,PrecipitationIn, CloudCover, Events, WindDirDegrees
2014-2-1,15,5,-5,7,-1,-15,100,71,55,30.02,29.91,29.83,10,9,3,13,5,16,0.00,7,,238
2014-2-2,10,3,-4,1,-6,-11,85,64,48,30.16,30.10,30.03,10,10,3,15,10,20,0.00,3,,246
2014-2-3,19,6,-7,9,-1,-15,100,68,53,30.23,30.13,30.07,10,10,10,14,5,,0.00,3,,246
2014-2-4,15,3,-9,5,-3,-17,100,71,49,30.34,30.31,30.23,10,10,2,8,3,,0.00,3,,281
2014-2-5,8,3,-2,3,-4,-11,85,75,61,30.35,30.32,30.27,10,9,3,13,8,,0.00,6,,329
2014-2-6,8,0,-9,-8,-11,-17,84,65,48,30.26,30.11,29.98,10,10,9,20,12,24,0.00,0,,244
2014-2-7,15,6,-4,-6,-8,-11,78,56,38,30.05,29.95,29.90,10,10,10,23,14,29,0.00,0,,233
2014-2-8,15,2,-11,5,-5,-22,100,70,55,30.06,30.03,29.99,10,10,9,10,4,,0.00,1,,241
2014-2-9,5,2,-2,1,-5,-17,100,73,46,30.19,30.09,30.02,10,6,1,15,8,20,0.00,7,,275
2014-2-10,1,-4,-13,-8,-12,-27,84,68,49,30.32,30.27,30.19,10,8,2,13,9,18,0.00,5,,278
2014-2-11,17,-2,-20,3,-11,-29,100,57,35,30.33,30.17,29.95,10,10,2,18,6,30,0.00,1,,201
2014-2-12,21,14,8,9,6,0,85,71,54,29.99,29.93,29.81,10,9,3,15,10,22,0.00,4,,239
2014-2-13,21,16,10,16,10,3,93,78,68,29.81,29.52,29.36,10,5,0,20,8,26,0.00,7,,162
2014-2-14,10,-3,-16,5,-3,-27,92,76,55,29.91,29.77,29.58,10,5,1,14,8,21,0.00,6,,330
2014-2-15,21,0,-20,16,0,-29,100,76,53,29.93,29.87,29.78,10,8,0,12,3,,0.00,6,,155
2014-2-16,15,6,-4,7,2,-11,100,74,52,30.20,30.11,29.94,10,8,2,10,5,21,0.00,3,,48
2014-2-17,26,19,12,19,13,3,86,73,62,30.08,29.77,29.65,10,6,1,23,12,36,0.00,7,,170
2014-2-18,42,30,17,25,20,12,93,69,46,29.67,29.55,29.46,10,9,5,17,8,25,0.12,2,,215
2014-2-19,41,32,23,27,18,12,80,56,36,29.75,29.67,29.57,10,10,10,18,10,25,0.00,1,,237
2014-2-20,42,36,30,30,24,16,93,65,39,29.76,29.48,28.97,10,8,0,17,8,24,0.00,7,,96
2014-2-21,30,19,8,27,14,1,93,82,67,29.46,29.12,28.84,10,1,0,30,16,40,0.00,8,,272
2014-2-22,15,10,6,5,1,-4,85,69,53,29.85,29.67,29.47,10,7,1,24,20,34,0.00,5,,258
2014-2-23,14,8,1,7,0,-6,85,69,57,29.99,29.93,29.85,10,8,1,25,18,32,0.00,8,,274
2014-2-24,10,6,1,3,-2,-9,85,70,52,30.12,30.07,30.00,10,6,1,17,13,25,0.00,5,,275
2014-2-25,5,-1,-7,-2,-10,-15,84,65,51,30.09,30.06,30.02,10,7,1,23,14,31,0.00,6,,286
2014-2-26,8,0,-9,3,-10,-20,79,63,46,30.05,29.65,29.40,10,6,0,25,15,36,0.00,6,,263
2014-2-27,0,-12,-23,-9,-18,-29,84,65,42,30.03,29.94,29.65,10,5,0,23,12,29,0.00,4,,302
2014-2-28,10,-8,-25,9,-12,-29,92,57,36,30.02,29.91,29.79,10,9,1,14,5,21,0.00,6,,212